Time;durP1;ratioP1;P1;durP2;ratioP2;P2;SDS_P1;SDS_P2;PMS_P1;PMS_P2;Temp;Humidity;BMP_temperature;BMP_pressure;BME280_temperature;BME280_humidity;BME280_pressure;Samples;Min_cycle;Max_cycle;Signal;HPM_P1;HPM_P2
2022/09/14 00:00:59;;;;;;;;;;;;;;;16.69;75.04;100297.44;5003965;28;19922;-66
2022/09/14 00:03:26;;;;;;;;;;;;;;;16.90;74.23;100300.06;4988499;28;20294;-66
2022/09/14 00:05:52;;;;;;;;;;;;;;;16.93;73.36;100307.75;5000984;28;19995;-66
2022/09/14 00:08:19;;;;;;;;;;;;;;;16.41;75.45;100314.72;5007925;28;19971;-67
2022/09/14 00:10:47;;;;;;;;;;;;;;;16.42;76.12;100303.19;5006830;28;19921;-66
2022/09/14 00:13:14;;;;;;;;;;;;;;;16.29;76.99;100307.81;5006576;28;19961;-66
2022/09/14 00:15:42;;;;;;;;;;;;;;;16.33;77.34;100301.28;4997880;28;19922;-66
2022/09/14 00:18:10;;;;;;;;;;;;;;;16.42;76.36;100299.69;4996349;28;19921;-66
2022/09/14 00:20:36;;;;;;;;;;;;;;;16.26;76.63;100296.66;4985751;28;20362;-67
2022/09/14 00:23:03;;;;;;;;;;;;;;;16.15;76.92;100291.41;5000685;28;19952;-67
2022/09/14 00:25:32;;;;;;;;;;;;;;;15.90;78.57;100292.53;5007515;28;19922;-67
2022/09/14 00:27:58;;;;;;;;;;;;;;;15.53;80.62;100299.91;5005980;28;20382;-67
2022/09/14 00:30:24;;;;;;;;;;;;;;;15.89;78.46;100294.34;5006864;28;19928;-67
2022/09/14 00:32:51;;;;;;;;;;;;;;;15.66;80.15;100291.88;5007588;28;19928;-67
2022/09/14 00:35:18;;;;;;;;;;;;;;;15.99;78.31;100282.06;5004991;28;19960;-67
2022/09/14 00:37:44;;;;;;;;;;;;;;;16.08;77.92;100280.47;5007478;28;20339;-67
2022/09/14 00:40:11;;;;;;;;;;;;;;;16.22;77.52;100284.66;5000179;28;19952;-67
2022/09/14 00:42:39;;;;;;;;;;;;;;;16.17;77.49;100274.44;5005152;28;19929;-67
2022/09/14 00:45:07;;;;;;;;;;;;;;;16.21;77.17;100272.38;5005249;28;19949;-67
2022/09/14 00:47:34;;;;;;;;;;;;;;;16.23;77.11;100268.63;5007741;28;19961;-67
2022/09/14 00:50:02;;;;;;;;;;;;;;;15.91;78.38;100270.44;5005696;28;19975;-67
2022/09/14 00:52:29;;;;;;;;;;;;;;;15.53;80.90;100268.22;5003725;28;19926;-67
2022/09/14 00:54:57;;;;;;;;;;;;;;;15.55;80.78;100277.72;4996657;28;19921;-67
2022/09/14 00:57:24;;;;;;;;;;;;;;;15.79;79.37;100272.25;4986838;28;19925;-66
2022/09/14 00:59:52;;;;;;;;;;;;;;;15.18;82.51;100273.63;4994202;28;19921;-66
2022/09/14 01:02:20;;;;;;;;;;;;;;;14.91;83.50;100281.88;5006214;28;19925;-66
2022/09/14 01:04:47;;;;;;;;;;;;;;;14.88;84.28;100270.72;5005585;28;19927;-66
2022/09/14 01:07:19;;;;;;;;;;;;;;;15.35;82.05;100270.47;5001822;28;19921;-66
2022/09/14 01:09:48;;;;;;;;;;;;;;;15.74;79.78;100266.50;5004041;28;19965;-66
2022/09/14 01:12:22;;;;;;;;;;;;;;;15.78;79.52;100251.25;5004797;28;19956;-66
2022/09/14 01:14:53;;;;;;;;;;;;;;;15.82;79.04;100252.66;5007496;28;19968;-67
2022/09/14 01:17:24;;;;;;;;;;;;;;;15.16;82.06;100259.69;5005993;28;19984;-67
2022/09/14 01:20:07;;;;;;;;;;;;;;;15.21;81.97;100260.16;5006711;28;20301;-66
2022/09/14 01:22:36;;;;;;;;;;;;;;;14.89;83.34;100260.00;5004775;28;19925;-67
2022/09/14 01:25:06;;;;;;;;;;;;;;;15.17;82.01;100258.72;5004329;28;19922;-66
2022/09/14 01:27:39;;;;;;;;;;;;;;;15.40;81.00;100257.75;5006476;28;19921;-66
2022/09/14 01:30:08;;;;;;;;;;;;;;;15.68;79.39;100266.16;5007168;28;19976;-66
2022/09/14 01:32:38;;;;;;;;;;;;;;;15.84;78.68;100264.81;5005335;28;20395;-66
2022/09/14 01:35:07;;;;;;;;;;;;;;;15.82;78.39;100257.94;5006863;28;19925;-66
2022/09/14 01:37:36;;;;;;;;;;;;;;;15.66;78.79;100250.44;5006001;28;20025;-66
2022/09/14 01:40:04;;;;;;;;;;;;;;;15.54;79.40;100249.59;4997406;28;20289;-67
2022/09/14 01:42:32;;;;;;;;;;;;;;;15.49;80.20;100256.19;5005398;28;19976;-66
2022/09/14 01:45:01;;;;;;;;;;;;;;;15.48;79.52;100260.63;5005312;28;19957;-66
2022/09/14 01:47:31;;;;;;;;;;;;;;;15.46;80.14;100261.72;5006323;28;20358;-66
2022/09/14 01:50:01;;;;;;;;;;;;;;;15.06;81.63;100266.63;5001905;28;19925;-66
2022/09/14 01:52:30;;;;;;;;;;;;;;;14.89;82.66;100272.41;5006220;28;19921;-66
2022/09/14 01:54:58;;;;;;;;;;;;;;;14.68;84.38;100266.09;5004506;28;19921;-66
2022/09/14 01:57:26;;;;;;;;;;;;;;;14.95;82.77;100266.63;5006649;28;19960;-66
2022/09/14 01:59:54;;;;;;;;;;;;;;;15.16;81.79;100267.59;5004068;28;19952;-66
2022/09/14 02:02:24;;;;;;;;;;;;;;;15.22;81.16;100263.66;4993145;28;19937;-66
2022/09/14 02:04:54;;;;;;;;;;;;;;;15.20;81.32;100260.28;4986916;28;19922;-66
2022/09/14 02:07:20;;;;;;;;;;;;;;;14.67;83.35;100259.16;4985943;28;19965;-67
2022/09/14 02:09:47;;;;;;;;;;;;;;;14.52;84.91;100261.16;5001417;28;19922;-67
2022/09/14 02:12:14;;;;;;;;;;;;;;;14.71;83.35;100253.50;5005572;28;19965;-67
2022/09/14 02:14:41;;;;;;;;;;;;;;;14.75;83.78;100254.94;5006158;28;19961;-67
2022/09/14 02:17:07;;;;;;;;;;;;;;;15.31;80.70;100258.47;5004552;28;20396;-67
2022/09/14 02:19:37;;;;;;;;;;;;;;;15.48;79.66;100257.97;5006363;28;19921;-67
2022/09/14 02:22:03;;;;;;;;;;;;;;;15.69;78.03;100244.06;5005324;28;19976;-67
2022/09/14 02:24:30;;;;;;;;;;;;;;;15.66;77.77;100252.22;4996305;28;19922;-67
2022/09/14 02:26:57;;;;;;;;;;;;;;;15.69;77.78;100247.53;4987987;28;20366;-66
2022/09/14 02:29:23;;;;;;;;;;;;;;;15.76;76.80;100240.78;4999688;28;19921;-66
2022/09/14 02:31:57;;;;;;;;;;;;;;;15.82;76.63;100242.09;5005395;28;20003;-66
2022/09/14 02:34:25;;;;;;;;;;;;;;;15.89;76.04;100235.34;5005122;28;19921;-66
2022/09/14 02:36:58;;;;;;;;;;;;;;;15.57;76.58;100236.16;5001299;28;20007;-67
2022/09/14 02:39:27;;;;;;;;;;;;;;;15.38;76.85;100230.63;5001752;28;19984;-66
2022/09/14 02:41:59;;;;;;;;;;;;;;;15.43;76.69;100230.25;4997566;28;19973;-66
2022/09/14 02:44:29;;;;;;;;;;;;;;;15.62;75.87;100214.63;4984323;28;19925;-66
2022/09/14 02:47:00;;;;;;;;;;;;;;;15.32;76.27;100212.63;4998316;28;19925;-66
2022/09/14 02:49:29;;;;;;;;;;;;;;;15.32;75.64;100220.53;4993786;28;20271;-66
2022/09/14 02:51:59;;;;;;;;;;;;;;;14.89;76.77;100219.59;4986964;28;19926;-65
2022/09/14 02:54:29;;;;;;;;;;;;;;;14.42;78.61;100226.69;5001651;28;20345;-65
2022/09/14 02:56:59;;;;;;;;;;;;;;;14.08;81.74;100214.31;5003392;28;19973;-65
2022/09/14 02:59:25;;;;;;;;;;;;;;;14.18;82.32;100217.13;5005428;28;20270;-66
2022/09/14 03:01:51;;;;;;;;;;;;;;;14.07;82.47;100225.84;4996725;28;19922;-66
2022/09/14 03:04:18;;;;;;;;;;;;;;;14.26;81.74;100226.16;5004609;28;19960;-66
2022/09/14 03:06:44;;;;;;;;;;;;;;;14.44;80.53;100230.06;5005515;28;19960;-65
2022/09/14 03:09:11;;;;;;;;;;;;;;;14.55;79.53;100239.81;5004285;28;19922;-65
2022/09/14 03:11:37;;;;;;;;;;;;;;;13.94;82.92;100230.31;5006605;28;20380;-65
2022/09/14 03:14:04;;;;;;;;;;;;;;;13.65;85.38;100230.66;5005120;28;19957;-65
2022/09/14 03:16:30;;;;;;;;;;;;;;;13.56;86.83;100231.31;4989828;28;19922;-65
2022/09/14 03:18:56;;;;;;;;;;;;;;;13.51;87.59;100233.44;4992158;28;19925;-66
2022/09/14 03:21:23;;;;;;;;;;;;;;;14.10;84.76;100230.88;5009433;28;20285;-66
2022/09/14 03:23:51;;;;;;;;;;;;;;;14.33;83.21;100229.16;5008602;28;19921;-66
2022/09/14 03:26:20;;;;;;;;;;;;;;;14.80;81.21;100233.50;5006725;28;19964;-67
2022/09/14 03:28:49;;;;;;;;;;;;;;;14.91;80.42;100233.50;5008952;28;19956;-66
2022/09/14 03:31:16;;;;;;;;;;;;;;;15.18;79.11;100223.44;5007716;28;20293;-66
2022/09/14 03:33:42;;;;;;;;;;;;;;;15.22;77.78;100216.13;4989049;28;19922;-66
2022/09/14 03:36:12;;;;;;;;;;;;;;;15.10;78.38;100212.63;4989316;28;19971;-66
2022/09/14 03:38:38;;;;;;;;;;;;;;;15.19;77.90;100198.69;5000571;28;19925;-67
2022/09/14 03:41:07;;;;;;;;;;;;;;;15.35;77.24;100198.31;5005453;28;20019;-66
2022/09/14 03:43:35;;;;;;;;;;;;;;;15.44;76.43;100192.31;5002861;28;19922;-66
2022/09/14 03:46:04;;;;;;;;;;;;;;;15.36;76.42;100198.22;5006556;28;19953;-66
2022/09/14 03:48:30;;;;;;;;;;;;;;;15.05;76.79;100214.78;4998560;28;19922;-66
2022/09/14 03:50:59;;;;;;;;;;;;;;;15.02;76.97;100199.19;5007347;28;19945;-66
2022/09/14 03:53:25;;;;;;;;;;;;;;;14.99;77.38;100194.16;5008495;28;19971;-66
2022/09/14 03:55:52;;;;;;;;;;;;;;;14.68;79.21;100203.59;5006606;28;20396;-66
2022/09/14 03:58:18;;;;;;;;;;;;;;;14.93;78.56;100195.47;5007545;28;19921;-66
2022/09/14 04:00:45;;;;;;;;;;;;;;;15.15;77.59;100194.59;5008477;28;20306;-67
2022/09/14 04:03:11;;;;;;;;;;;;;;;15.14;77.07;100182.38;5006350;28;19960;-66
2022/09/14 04:05:38;;;;;;;;;;;;;;;15.27;76.59;100188.38;5007851;28;20018;-66
2022/09/14 04:08:04;;;;;;;;;;;;;;;15.33;76.24;100177.31;5007733;28;19929;-66
2022/09/14 04:10:30;;;;;;;;;;;;;;;15.47;75.74;100171.75;4995945;28;19926;-66
2022/09/14 04:12:57;;;;;;;;;;;;;;;15.35;76.10;100169.25;4990375;28;19925;-67
2022/09/14 04:15:23;;;;;;;;;;;;;;;15.24;76.52;100170.13;4992735;28;19976;-66
2022/09/14 04:17:51;;;;;;;;;;;;;;;15.19;77.10;100163.53;5006169;28;19971;-66
2022/09/14 04:20:17;;;;;;;;;;;;;;;15.15;76.97;100170.03;5003518;28;19921;-66
2022/09/14 04:22:44;;;;;;;;;;;;;;;14.93;78.03;100160.28;5007148;28;19979;-66
2022/09/14 04:25:10;;;;;;;;;;;;;;;14.73;78.69;100161.88;5006359;28;19921;-66
2022/09/14 04:27:37;;;;;;;;;;;;;;;14.73;79.23;100161.03;4990118;28;19944;-66
2022/09/14 04:30:04;;;;;;;;;;;;;;;14.91;78.63;100168.34;4995874;28;19921;-67
2022/09/14 04:32:30;;;;;;;;;;;;;;;14.87;78.43;100166.91;5006649;28;19972;-67
2022/09/14 04:34:57;;;;;;;;;;;;;;;14.68;78.47;100179.00;5007065;28;19987;-67
2022/09/14 04:37:24;;;;;;;;;;;;;;;14.88;78.03;100175.69;5006462;28;19921;-67
2022/09/14 04:39:50;;;;;;;;;;;;;;;15.04;77.35;100166.41;5004882;28;19972;-67
2022/09/14 04:42:16;;;;;;;;;;;;;;;14.91;77.06;100170.16;5007570;28;19992;-66
2022/09/14 04:44:42;;;;;;;;;;;;;;;14.36;79.72;100178.84;5007166;28;19972;-66
2022/09/14 04:47:08;;;;;;;;;;;;;;;14.20;81.32;100187.03;5006591;28;19922;-66
2022/09/14 04:49:35;;;;;;;;;;;;;;;14.45;80.79;100188.69;5007065;28;19929;-66
2022/09/14 04:52:02;;;;;;;;;;;;;;;14.11;82.46;100177.22;5005577;28;19932;-66
2022/09/14 04:54:28;;;;;;;;;;;;;;;13.71;85.49;100181.94;5006433;28;20335;-66
2022/09/14 04:56:55;;;;;;;;;;;;;;;13.50;86.93;100183.50;5002318;28;19925;-67
2022/09/14 04:59:21;;;;;;;;;;;;;;;13.38;88.12;100174.69;5000966;28;19929;-67
2022/09/14 05:01:47;;;;;;;;;;;;;;;13.52;87.42;100171.09;5006508;28;20014;-66
2022/09/14 05:04:14;;;;;;;;;;;;;;;13.48;87.75;100181.00;5006181;28;19921;-66
2022/09/14 05:06:40;;;;;;;;;;;;;;;13.96;86.14;100170.44;4987225;28;19953;-66
2022/09/14 05:09:12;;;;;;;;;;;;;;;14.27;83.97;100166.31;4999620;28;19925;-66
2022/09/14 05:11:38;;;;;;;;;;;;;;;14.18;83.61;100167.03;5002791;28;19930;-66
2022/09/14 05:14:05;;;;;;;;;;;;;;;14.10;83.52;100159.69;5006074;28;19964;-66
2022/09/14 05:16:32;;;;;;;;;;;;;;;14.15;84.16;100154.94;4989850;28;19922;-66
2022/09/14 05:19:00;;;;;;;;;;;;;;;14.29;83.56;100167.91;4983977;28;20321;-66
2022/09/14 05:21:26;;;;;;;;;;;;;;;14.46;82.63;100167.47;4978309;28;19926;-66
2022/09/14 05:23:53;;;;;;;;;;;;;;;14.60;81.87;100153.22;4983050;28;19957;-66
2022/09/14 05:26:21;;;;;;;;;;;;;;;14.67;81.87;100156.25;5003267;28;19987;-66
2022/09/14 05:28:49;;;;;;;;;;;;;;;14.74;81.36;100166.22;5005816;28;19991;-66
2022/09/14 05:31:15;;;;;;;;;;;;;;;14.87;81.24;100148.44;5001968;28;20408;-66
2022/09/14 05:33:42;;;;;;;;;;;;;;;15.10;80.42;100146.63;4988023;28;19960;-66
2022/09/14 05:36:08;;;;;;;;;;;;;;;14.97;80.63;100153.81;4985363;28;19945;-66
2022/09/14 05:38:36;;;;;;;;;;;;;;;14.85;81.14;100139.81;4994369;28;19925;-67
2022/09/14 05:41:03;;;;;;;;;;;;;;;14.95;81.54;100140.75;5006300;28;19930;-67
2022/09/14 05:43:30;;;;;;;;;;;;;;;15.35;79.20;100145.47;5006707;28;19926;-67
2022/09/14 05:46:00;;;;;;;;;;;;;;;15.39;79.26;100137.19;5005995;28;20335;-67
2022/09/14 05:48:27;;;;;;;;;;;;;;;15.59;78.82;100141.72;5006042;28;20365;-67
2022/09/14 05:50:57;;;;;;;;;;;;;;;15.78;78.55;100146.31;5004728;28;19921;-67
2022/09/14 05:53:23;;;;;;;;;;;;;;;15.94;77.91;100143.25;5005296;28;19921;-67
2022/09/14 05:55:58;;;;;;;;;;;;;;;15.92;78.22;100148.69;5006534;28;19926;-67
2022/09/14 05:58:24;;;;;;;;;;;;;;;15.93;78.34;100157.44;5007697;28;20412;-67
2022/09/14 06:00:52;;;;;;;;;;;;;;;16.18;77.93;100164.19;5001084;28;19921;-67
2022/09/14 06:03:18;;;;;;;;;;;;;;;16.19;77.91;100160.56;5005243;28;19921;-67
2022/09/14 06:05:44;;;;;;;;;;;;;;;16.16;78.00;100151.06;4999983;28;19922;-67
2022/09/14 06:08:10;;;;;;;;;;;;;;;16.29;78.22;100154.38;5004412;28;20018;-67
2022/09/14 06:10:37;;;;;;;;;;;;;;;16.38;77.95;100145.66;5005085;28;19925;-67
2022/09/14 06:13:03;;;;;;;;;;;;;;;16.54;77.88;100147.84;5006655;28;19921;-67
2022/09/14 06:15:29;;;;;;;;;;;;;;;16.47;78.19;100154.63;5003951;28;19921;-67
2022/09/14 06:17:57;;;;;;;;;;;;;;;16.60;77.70;100144.69;5006002;28;19921;-67
2022/09/14 06:20:23;;;;;;;;;;;;;;;16.39;78.23;100149.13;5004381;28;19980;-67
2022/09/14 06:22:49;;;;;;;;;;;;;;;16.44;79.34;100150.41;4984827;28;19922;-67
2022/09/14 06:25:15;;;;;;;;;;;;;;;16.26;79.44;100151.97;4986186;28;19945;-67
2022/09/14 06:27:42;;;;;;;;;;;;;;;16.64;78.63;100155.84;4986934;28;19957;-67
2022/09/14 06:30:09;;;;;;;;;;;;;;;16.78;77.47;100148.38;4994532;28;20325;-67
2022/09/14 06:32:35;;;;;;;;;;;;;;;16.98;76.89;100144.84;4992976;28;20031;-67
2022/09/14 06:35:03;;;;;;;;;;;;;;;17.16;76.03;100146.84;4985591;28;19953;-67
2022/09/14 06:37:29;;;;;;;;;;;;;;;16.98;76.72;100144.84;4981214;28;20317;-67
2022/09/14 06:39:55;;;;;;;;;;;;;;;17.05;74.99;100150.44;4988566;28;19961;-67
2022/09/14 06:42:21;;;;;;;;;;;;;;;16.93;75.79;100154.16;5005394;28;19921;-67
2022/09/14 06:44:47;;;;;;;;;;;;;;;17.19;74.02;100146.56;5003953;28;19925;-67
2022/09/14 06:47:14;;;;;;;;;;;;;;;17.26;74.21;100143.25;5009239;28;19960;-67
2022/09/14 06:49:40;;;;;;;;;;;;;;;17.31;73.91;100148.16;5008898;28;19922;-67
2022/09/14 06:52:07;;;;;;;;;;;;;;;17.19;74.57;100144.75;5007974;28;20388;-67
2022/09/14 06:54:34;;;;;;;;;;;;;;;17.24;75.33;100145.22;5000931;28;20374;-67
2022/09/14 06:57:00;;;;;;;;;;;;;;;17.59;74.01;100154.50;4991323;28;19925;-67
2022/09/14 06:59:26;;;;;;;;;;;;;;;17.85;72.76;100158.28;5008877;28;19952;-67
2022/09/14 07:01:52;;;;;;;;;;;;;;;17.96;74.40;100152.81;5008547;28;19921;-67
2022/09/14 07:04:19;;;;;;;;;;;;;;;18.07;74.52;100155.34;5008287;28;19921;-67
2022/09/14 07:06:46;;;;;;;;;;;;;;;18.11;75.01;100153.25;5010043;28;19922;-67
2022/09/14 07:09:13;;;;;;;;;;;;;;;18.22;72.83;100158.38;5007643;28;19922;-68
2022/09/14 07:11:40;;;;;;;;;;;;;;;18.36;71.92;100165.94;5008154;28;20329;-68
2022/09/14 07:14:07;;;;;;;;;;;;;;;18.38;72.40;100161.31;5009041;28;20330;-68
2022/09/14 07:16:35;;;;;;;;;;;;;;;18.51;72.05;100158.34;5007438;28;19926;-68
2022/09/14 07:19:02;;;;;;;;;;;;;;;18.59;71.58;100166.47;5008221;28;20286;-68
2022/09/14 07:21:29;;;;;;;;;;;;;;;18.58;71.81;100159.47;5009834;28;19925;-68
2022/09/14 07:23:56;;;;;;;;;;;;;;;18.79;69.96;100160.09;5003057;28;20008;-68
2022/09/14 07:26:24;;;;;;;;;;;;;;;18.87;70.41;100165.53;4988482;28;19964;-68
2022/09/14 07:28:52;;;;;;;;;;;;;;;18.99;70.04;100143.13;4990620;28;19957;-68
2022/09/14 07:31:20;;;;;;;;;;;;;;;19.00;69.94;100152.72;5007005;28;20471;-68
2022/09/14 07:33:46;;;;;;;;;;;;;;;19.00;69.82;100158.03;5007989;28;19921;-68
2022/09/14 07:36:13;;;;;;;;;;;;;;;19.22;70.54;100148.84;5007101;28;19972;-68
2022/09/14 07:38:40;;;;;;;;;;;;;;;19.39;68.27;100154.22;5008665;28;19925;-68
2022/09/14 07:41:06;;;;;;;;;;;;;;;19.37;67.71;100148.19;5007269;28;20014;-68
2022/09/14 07:43:34;;;;;;;;;;;;;;;19.38;66.72;100144.56;5006618;28;19975;-69
2022/09/14 07:46:01;;;;;;;;;;;;;;;19.23;67.50;100148.69;4997632;28;20392;-69
2022/09/14 07:48:27;;;;;;;;;;;;;;;19.40;67.26;100153.19;4999199;28;20333;-69
2022/09/14 07:50:59;;;;;;;;;;;;;;;19.28;67.58;100149.09;5002684;28;19950;-69
2022/09/14 07:53:25;;;;;;;;;;;;;;;19.22;67.33;100141.69;5001854;28;20400;-69
2022/09/14 07:55:51;;;;;;;;;;;;;;;19.48;67.76;100149.00;5007554;28;19957;-70
2022/09/14 07:58:17;;;;;;;;;;;;;;;19.69;67.84;100157.53;5005262;28;19921;-70
2022/09/14 08:00:45;;;;;;;;;;;;;;;19.87;65.98;100148.56;5007407;28;20362;-70
2022/09/14 08:03:11;;;;;;;;;;;;;;;19.90;65.80;100150.09;5007744;28;19960;-70
2022/09/14 08:05:37;;;;;;;;;;;;;;;20.21;63.62;100159.31;5006133;28;19926;-70
2022/09/14 08:08:03;;;;;;;;;;;;;;;20.31;63.06;100152.13;5007197;28;20038;-70
2022/09/14 08:10:30;;;;;;;;;;;;;;;20.31;62.78;100157.44;5007293;28;20377;-70
2022/09/14 08:12:56;;;;;;;;;;;;;;;20.27;62.12;100157.88;5007695;28;19921;-70
2022/09/14 08:15:23;;;;;;;;;;;;;;;20.35;62.40;100150.81;5006397;28;19922;-70
2022/09/14 08:17:50;;;;;;;;;;;;;;;20.19;62.24;100147.16;5007238;28;19921;-70
2022/09/14 08:20:16;;;;;;;;;;;;;;;20.37;62.88;100142.66;5007127;28;19944;-70
2022/09/14 08:22:43;;;;;;;;;;;;;;;20.48;62.19;100144.22;5006984;28;19921;-70
2022/09/14 08:25:10;;;;;;;;;;;;;;;20.48;63.25;100147.72;5007210;28;19943;-70
2022/09/14 08:27:36;;;;;;;;;;;;;;;20.55;62.28;100150.59;5007810;28;19921;-70
2022/09/14 08:30:04;;;;;;;;;;;;;;;20.57;63.62;100148.63;5005839;28;20376;-70
2022/09/14 08:32:31;;;;;;;;;;;;;;;20.52;63.61;100143.75;5006147;28;19921;-70
2022/09/14 08:34:58;;;;;;;;;;;;;;;20.63;62.46;100147.97;4998354;28;20448;-70
2022/09/14 08:37:24;;;;;;;;;;;;;;;20.60;63.57;100151.81;4990166;28;19922;-70
2022/09/14 08:39:52;;;;;;;;;;;;;;;20.71;61.29;100135.53;5002424;28;19992;-70
2022/09/14 08:42:19;;;;;;;;;;;;;;;20.48;61.60;100139.72;4991409;28;19948;-70
2022/09/14 08:44:49;;;;;;;;;;;;;;;20.52;62.52;100125.09;4986516;28;20337;-70
2022/09/14 08:47:17;;;;;;;;;;;;;;;20.55;62.13;100126.63;5003192;28;19921;-70
2022/09/14 08:49:46;;;;;;;;;;;;;;;20.29;61.64;100123.94;4987482;28;19929;-70
2022/09/14 08:52:17;;;;;;;;;;;;;;;20.30;62.75;100117.66;5004503;28;20289;-70
2022/09/14 08:54:43;;;;;;;;;;;;;;;20.40;61.83;100121.03;5005727;28;20554;-70
2022/09/14 08:57:16;;;;;;;;;;;;;;;20.91;60.39;100130.81;4987210;28;19929;-70
2022/09/14 08:59:46;;;;;;;;;;;;;;;20.80;59.27;100123.09;4992672;28;19922;-70
2022/09/14 09:02:26;;;;;;;;;;;;;;;20.75;61.84;100120.06;4997000;28;20385;-70
2022/09/14 09:04:53;;;;;;;;;;;;;;;20.83;61.71;100122.78;4996742;28;19960;-70
2022/09/14 09:07:29;;;;;;;;;;;;;;;20.62;59.81;100125.81;4984468;28;20330;-70
2022/09/14 09:09:56;;;;;;;;;;;;;;;20.76;61.30;100127.09;5003096;28;19969;-71
2022/09/14 09:12:23;;;;;;;;;;;;;;;20.56;61.39;100125.63;5005664;28;20025;-71
2022/09/14 09:14:51;;;;;;;;;;;;;;;20.48;60.41;100128.25;4989412;28;19973;-71
2022/09/14 09:17:20;;;;;;;;;;;;;;;20.76;60.14;100124.41;4986410;28;19961;-70
2022/09/14 09:19:52;;;;;;;;;;;;;;;20.96;61.26;100117.81;4985946;28;19949;-70
2022/09/14 09:22:21;;;;;;;;;;;;;;;20.66;60.30;100121.00;4987013;28;19929;-70
2022/09/14 09:24:50;;;;;;;;;;;;;;;20.74;59.88;100113.06;5007028;28;19971;-70
2022/09/14 09:27:17;;;;;;;;;;;;;;;20.83;60.07;100106.78;5005198;28;20388;-71
2022/09/14 09:29:43;;;;;;;;;;;;;;;20.71;59.94;100102.72;5004228;28;20309;-71
2022/09/14 09:32:12;;;;;;;;;;;;;;;20.78;60.21;100101.09;5006606;28;19952;-71
2022/09/14 09:34:38;;;;;;;;;;;;;;;21.04;60.24;100101.88;5005455;28;19925;-71
2022/09/14 09:37:05;;;;;;;;;;;;;;;21.22;59.79;100091.13;5005043;28;20003;-71
2022/09/14 09:39:31;;;;;;;;;;;;;;;21.42;58.76;100102.34;5005042;28;20340;-71
2022/09/14 09:42:01;;;;;;;;;;;;;;;21.61;57.66;100107.38;4983622;28;20011;-71
2022/09/14 09:44:27;;;;;;;;;;;;;;;21.62;57.00;100107.19;4986203;28;19929;-71
2022/09/14 09:46:55;;;;;;;;;;;;;;;21.54;58.30;100109.03;4986701;28;19957;-71
2022/09/14 09:49:22;;;;;;;;;;;;;;;21.48;55.98;100104.34;4989377;28;19930;-71
2022/09/14 09:51:49;;;;;;;;;;;;;;;21.66;56.79;100110.38;5004638;28;19984;-71
2022/09/14 09:54:22;;;;;;;;;;;;;;;21.36;54.67;100114.47;5006057;28;20025;-71
2022/09/14 09:56:52;;;;;;;;;;;;;;;21.62;57.05;100098.34;4989394;28;19975;-71
2022/09/14 09:59:27;;;;;;;;;;;;;;;21.41;54.96;100098.00;4992403;28;19921;-71
2022/09/14 10:01:54;;;;;;;;;;;;;;;21.07;56.00;100088.22;4999386;28;19976;-71
2022/09/14 10:04:22;;;;;;;;;;;;;;;21.67;57.63;100088.88;5004873;28;19921;-71
2022/09/14 10:06:49;;;;;;;;;;;;;;;22.17;54.75;100091.38;5002314;28;20289;-71
2022/09/14 10:09:17;;;;;;;;;;;;;;;22.50;53.20;100083.31;5003618;28;19953;-70
2022/09/14 10:11:44;;;;;;;;;;;;;;;22.55;51.34;100088.94;5003763;28;20301;-70
2022/09/14 10:14:20;;;;;;;;;;;;;;;22.51;51.00;100084.94;4986058;28;19921;-70
2022/09/14 10:16:48;;;;;;;;;;;;;;;23.07;49.19;100071.38;4987857;28;19929;-70
2022/09/14 10:19:15;;;;;;;;;;;;;;;22.88;50.88;100069.13;4984871;28;19945;-70
2022/09/14 10:22:00;;;;;;;;;;;;;;;23.21;48.53;100075.16;4998468;28;19977;-70
2022/09/14 10:24:28;;;;;;;;;;;;;;;23.36;49.32;100070.69;5008104;28;19922;-70
2022/09/14 10:26:54;;;;;;;;;;;;;;;23.12;48.46;100079.72;5010206;28;19945;-70
2022/09/14 10:29:30;;;;;;;;;;;;;;;23.29;49.48;100083.97;5009336;28;19921;-70
2022/09/14 10:32:01;;;;;;;;;;;;;;;23.52;49.91;100080.50;5006403;28;20274;-70
2022/09/14 10:34:29;;;;;;;;;;;;;;;23.67;47.21;100076.88;5001969;28;19929;-70
2022/09/14 10:37:01;;;;;;;;;;;;;;;24.33;45.35;100079.81;5001285;28;20369;-71
2022/09/14 10:39:32;;;;;;;;;;;;;;;24.17;46.65;100075.44;5008491;28;20010;-70
2022/09/14 10:42:05;;;;;;;;;;;;;;;24.23;49.60;100075.56;5010723;28;19976;-70
2022/09/14 10:44:42;;;;;;;;;;;;;;;23.87;46.33;100066.53;5009965;28;19929;-70
2022/09/14 10:47:20;;;;;;;;;;;;;;;23.34;47.13;100069.22;5008850;28;20097;-70
2022/09/14 10:49:52;;;;;;;;;;;;;;;23.66;48.27;100064.50;4997391;28;19969;-70
2022/09/14 10:52:21;;;;;;;;;;;;;;;23.70;47.88;100060.47;5009786;28;19922;-70
2022/09/14 10:54:58;;;;;;;;;;;;;;;24.01;49.04;100065.72;5007401;28;19976;-70
2022/09/14 10:57:39;;;;;;;;;;;;;;;24.12;44.28;100065.28;5009396;28;20003;-70
2022/09/14 11:00:11;;;;;;;;;;;;;;;23.99;45.02;100067.72;5007819;28;19921;-70
2022/09/14 11:02:48;;;;;;;;;;;;;;;23.97;45.31;100058.22;4999537;28;20438;-70
2022/09/14 11:05:18;;;;;;;;;;;;;;;23.99;45.09;100067.72;4988993;28;19965;-71
2022/09/14 11:07:55;;;;;;;;;;;;;;;24.06;46.00;100057.94;4991280;28;19925;-71
2022/09/14 11:10:26;;;;;;;;;;;;;;;24.38;45.17;100066.72;5008768;28;19921;-72
2022/09/14 11:13:13;;;;;;;;;;;;;;;24.12;46.15;100067.94;5005465;28;19929;-71
2022/09/14 11:15:45;;;;;;;;;;;;;;;24.18;46.06;100067.25;5009060;28;20301;-71
2022/09/14 11:18:19;;;;;;;;;;;;;;;24.51;44.55;100057.00;4990182;28;19922;-72
2022/09/14 11:20:51;;;;;;;;;;;;;;;24.02;45.14;100058.50;4990924;28;19922;-70
2022/09/14 11:23:23;;;;;;;;;;;;;;;24.16;44.96;100047.03;5004961;28;19952;-70
2022/09/14 11:25:52;;;;;;;;;;;;;;;23.21;47.96;100051.91;5009209;28;19928;-70
2022/09/14 11:28:21;;;;;;;;;;;;;;;23.18;46.29;100054.09;5008054;28;19965;-70
2022/09/14 11:30:50;;;;;;;;;;;;;;;22.31;46.92;100069.34;5009512;28;19976;-70
2022/09/14 11:33:20;;;;;;;;;;;;;;;22.21;49.22;100067.81;5006764;28;19922;-70
2022/09/14 11:35:48;;;;;;;;;;;;;;;21.79;48.95;100078.69;5006761;28;20424;-70
2022/09/14 11:38:16;;;;;;;;;;;;;;;20.68;52.44;100066.59;4998581;28;19964;-70
2022/09/14 11:40:45;;;;;;;;;;;;;;;20.78;51.97;100059.31;5006063;28;19933;-70
2022/09/14 11:43:13;;;;;;;;;;;;;;;20.06;53.86;100070.38;5007190;28;19925;-70
2022/09/14 11:45:41;;;;;;;;;;;;;;;20.18;54.97;100050.47;5008656;28;19929;-70
2022/09/14 11:48:10;;;;;;;;;;;;;;;20.84;53.05;100048.00;5007925;28;20011;-70
2022/09/14 11:50:38;;;;;;;;;;;;;;;21.05;52.38;100054.72;5006552;28;19926;-70
2022/09/14 11:53:10;;;;;;;;;;;;;;;21.33;52.28;100056.16;4990089;28;20378;-70
2022/09/14 11:55:40;;;;;;;;;;;;;;;21.54;51.27;100047.69;4986787;28;20535;-70
2022/09/14 11:58:07;;;;;;;;;;;;;;;22.15;49.54;100044.47;4997500;28;19925;-70
2022/09/14 12:00:44;;;;;;;;;;;;;;;21.84;50.36;100049.66;5006135;28;20322;-70
2022/09/14 12:03:16;;;;;;;;;;;;;;;21.74;50.17;100049.00;5008088;28;19921;-70
2022/09/14 12:05:44;;;;;;;;;;;;;;;22.01;50.25;100050.53;5005933;28;19925;-70
2022/09/14 12:08:27;;;;;;;;;;;;;;;22.23;49.63;100045.31;4993554;28;19925;-69
2022/09/14 12:11:01;;;;;;;;;;;;;;;22.06;50.16;100038.31;4998317;28;19922;-70
2022/09/14 12:13:27;;;;;;;;;;;;;;;21.89;50.31;100041.16;5006959;28;20314;-69
2022/09/14 12:16:00;;;;;;;;;;;;;;;21.51;51.42;100037.31;4999605;28;19925;-69
2022/09/14 12:18:27;;;;;;;;;;;;;;;21.27;53.17;100035.47;5003950;28;19921;-69
2022/09/14 12:21:02;;;;;;;;;;;;;;;21.39;52.47;100034.16;4989908;28;20166;-69
2022/09/14 12:23:40;;;;;;;;;;;;;;;21.31;51.97;100043.00;4988895;28;19952;-69
2022/09/14 12:26:37;;;;;;;;;;;;;;;21.25;51.32;100040.13;5000702;28;19948;-69
2022/09/14 12:29:21;;;;;;;;;;;;;;;20.97;52.05;100030.72;5006679;28;20499;-69
2022/09/14 12:32:11;;;;;;;;;;;;;;;21.15;53.26;100020.78;5006252;28;19928;-68
2022/09/14 12:34:38;;;;;;;;;;;;;;;21.29;53.25;100007.66;4992328;28;19921;-69
2022/09/14 12:37:26;;;;;;;;;;;;;;;21.73;50.77;100004.63;5002760;28;20369;-69
2022/09/14 12:40:26;;;;;;;;;;;;;;;21.71;50.45;100018.16;5003726;28;19927;-69
2022/09/14 12:42:53;;;;;;;;;;;;;;;21.90;51.29;100006.28;4962998;28;19922;-69